sim
Sign-in with your pilot id or email,
or register
Callsign
Passwort

Schedule Details

Flight Number: OEO6036
Departure: Berlin Tegel Airport (EDDT) at 08:25
Arrival: Fuerteventura Airport (GCFV) at 13:55

Weather Information
Getting current METAR information for EDDT 222150Z 10003KT 050V140 9999 FEW033 19/16 Q1021
Getting current METAR information for GCFV 222200Z 35016KT CAVOK 22/17 Q1018

Schedule Frequency

Route Map